Decoded Metar for YLIS ( in ) (IATA:) | Meteo·Mobile Aviation Weather
aviador You're here:

YLIS Decoded Metar

in
Report Time2018-12-17 15:00:00
UTC Time2018-12-17 15:29:43
Flight Rules vfr VFR
Wind040° at 02 kt
W.Decomp.*RWY 33: 0.7 kt HW 1.9 kt RCW
W.Rank040° ranks 16
Current wind is below 040° avg. (7.4)
Visibility9999 m
Phenomena:N/A
Clouds:Broken 064 Hf
Expected CloudBase > 1,200 ft AGL from Temp-Dew spread
Ceiling6,400 ft
Temp22°C
Dew Point19°C (83% RH)
QNH1010 hPa
Raw Report
METAR YLIS 171500Z AUTO 04002KT 9999 // BKN064 22/19 Q1010=

Extra information for YLIS:More info

Social comments